createdAt,value
2022-08-05T00:00:16.238Z,20.06
2022-08-05T00:02:43.916Z,19.99
2022-08-05T00:06:01.798Z,20.00
2022-08-05T00:08:06.334Z,20.07
2022-08-05T00:10:52.540Z,20.05
2022-08-05T00:13:19.790Z,20.06
2022-08-05T00:15:55.851Z,20.04
2022-08-05T00:18:25.287Z,20.01
2022-08-05T00:20:52.404Z,20.05
2022-08-05T00:23:44.406Z,20.04
2022-08-05T00:26:08.120Z,19.98
2022-08-05T00:28:35.684Z,20.06
2022-08-05T00:31:04.439Z,20.03
2022-08-05T00:34:54.815Z,20.07
2022-08-05T00:37:09.801Z,20.07
2022-08-05T00:39:06.192Z,20.11
2022-08-05T00:41:52.129Z,20.11
2022-08-05T00:44:30.706Z,20.08
2022-08-05T00:47:02.968Z,20.07
2022-08-05T00:49:32.778Z,20.02
2022-08-05T00:52:13.525Z,19.92
2022-08-05T00:54:40.323Z,19.87
2022-08-05T00:57:09.985Z,19.84
2022-08-05T00:59:44.605Z,19.80
2022-08-05T01:02:12.236Z,19.81
2022-08-05T01:04:42.107Z,19.81
2022-08-05T01:07:13.723Z,19.83
2022-08-05T01:09:56.363Z,19.85
2022-08-05T01:12:25.232Z,19.84
2022-08-05T01:15:05.372Z,19.83
2022-08-05T01:17:53.746Z,19.85
2022-08-05T01:20:34.662Z,19.88
2022-08-05T01:23:25.691Z,19.85
2022-08-05T01:26:34.113Z,19.83
2022-08-05T01:29:08.850Z,19.78
2022-08-05T01:31:52.766Z,19.78
2022-08-05T01:34:30.869Z,19.77
2022-08-05T01:37:44.359Z,19.76
2022-08-05T01:40:12.911Z,19.73
2022-08-05T01:42:42.859Z,19.72
2022-08-05T01:45:10.796Z,19.53
2022-08-05T01:47:43.325Z,19.46
2022-08-05T01:50:17.501Z,19.38
2022-08-05T01:52:49.930Z,19.31
2022-08-05T01:55:20.085Z,19.23
2022-08-05T01:58:12.769Z,19.20
2022-08-05T02:00:39.804Z,19.19
2022-08-05T02:03:24.157Z,19.24
2022-08-05T02:05:59.805Z,19.16
2022-08-05T02:08:31.578Z,19.19
2022-08-05T02:11:11.723Z,19.26
2022-08-05T02:14:02.875Z,19.30
2022-08-05T02:16:39.937Z,19.35
2022-08-05T02:19:17.775Z,19.52
2022-08-05T02:21:51.417Z,19.65
2022-08-05T02:24:22.966Z,19.73
2022-08-05T02:26:56.570Z,19.67
2022-08-05T02:29:58.443Z,19.66
2022-08-05T02:32:19.917Z,19.64
2022-08-05T02:34:59.116Z,19.65
2022-08-05T02:37:32.076Z,19.55
2022-08-05T02:39:59.664Z,19.49
2022-08-05T02:42:27.597Z,19.40
2022-08-05T02:45:00.298Z,19.34
2022-08-05T02:47:58.573Z,19.40
2022-08-05T02:50:19.176Z,19.56
2022-08-05T02:52:46.892Z,19.68
2022-08-05T02:55:14.480Z,19.73
2022-08-05T02:58:11.474Z,19.63
2022-08-05T03:00:34.773Z,19.50
2022-08-05T03:03:10.199Z,19.47
2022-08-05T03:06:57.245Z,19.53
2022-08-05T03:08:29.617Z,19.54
2022-08-05T03:11:01.071Z,19.55
2022-08-05T03:13:51.581Z,19.42
2022-08-05T03:16:29.456Z,19.30
2022-08-05T03:18:58.090Z,19.33
2022-08-05T03:21:24.644Z,19.38
2022-08-05T03:23:56.931Z,19.32
2022-08-05T03:26:31.342Z,19.18
2022-08-05T03:28:59.482Z,19.15
2022-08-05T03:31:55.652Z,19.04
2022-08-05T03:34:14.791Z,18.96
2022-08-05T03:36:41.429Z,18.91
2022-08-05T03:39:20.106Z,18.87
2022-08-05T03:41:53.482Z,18.81
2022-08-05T03:44:23.547Z,18.85
2022-08-05T03:46:52.107Z,18.81
2022-08-05T03:49:19.199Z,18.81
2022-08-05T03:52:48.707Z,18.91
2022-08-05T03:55:52.265Z,18.99
2022-08-05T03:57:42.393Z,19.06
2022-08-05T04:00:16.028Z,19.07
2022-08-05T04:02:57.578Z,19.04
2022-08-05T04:05:33.288Z,19.14
2022-08-05T04:08:03.695Z,19.33
2022-08-05T04:10:37.947Z,19.41
2022-08-05T04:13:08.048Z,19.37
2022-08-05T04:15:36.479Z,19.29
2022-08-05T04:18:07.385Z,19.29
2022-08-05T04:20:37.533Z,19.32
2022-08-05T04:23:04.300Z,19.26
2022-08-05T04:25:57.853Z,19.26
2022-08-05T04:28:30.640Z,19.21
2022-08-05T04:31:01.107Z,19.22
2022-08-05T04:34:18.438Z,19.12
2022-08-05T04:36:21.354Z,19.08
2022-08-05T04:39:02.321Z,19.14
2022-08-05T04:41:36.850Z,19.08
2022-08-05T04:44:09.642Z,19.11
2022-08-05T04:46:37.655Z,19.19
2022-08-05T04:49:05.611Z,19.19
2022-08-05T04:51:39.074Z,19.18
2022-08-05T04:54:05.696Z,19.15
2022-08-05T04:56:37.218Z,19.12
2022-08-05T04:59:21.607Z,19.06
2022-08-05T05:02:08.338Z,18.90
2022-08-05T05:04:38.495Z,18.78
2022-08-05T05:07:11.693Z,18.64
2022-08-05T05:09:42.525Z,18.54
2022-08-05T05:12:11.617Z,18.64
2022-08-05T05:14:38.294Z,18.60
2022-08-05T05:17:21.195Z,18.71
2022-08-05T05:19:50.271Z,18.76
2022-08-05T05:22:23.991Z,18.69
2022-08-05T05:24:56.822Z,18.55
2022-08-05T05:27:44.254Z,18.48
2022-08-05T05:30:30.593Z,18.45
2022-08-05T05:33:08.944Z,18.40
2022-08-05T05:35:43.192Z,18.46
2022-08-05T05:38:13.374Z,18.43
2022-08-05T05:40:50.068Z,18.29
2022-08-05T05:43:54.151Z,18.15
2022-08-05T05:46:17.372Z,18.20
2022-08-05T05:48:48.186Z,18.30
2022-08-05T05:51:27.895Z,18.27
2022-08-05T05:53:59.523Z,18.28
2022-08-05T05:56:32.825Z,18.29
2022-08-05T05:59:07.640Z,18.30
2022-08-05T06:01:37.506Z,18.14
2022-08-05T06:04:12.062Z,18.07
2022-08-05T06:06:47.570Z,18.12
2022-08-05T06:09:25.596Z,18.16
2022-08-05T06:12:03.237Z,18.20
2022-08-05T06:14:31.260Z,18.19
2022-08-05T06:16:58.429Z,18.11
2022-08-05T06:19:34.647Z,18.06
2022-08-05T06:22:04.002Z,17.99
2022-08-05T06:24:31.463Z,17.96
2022-08-05T06:26:58.201Z,17.86
2022-08-05T06:29:46.411Z,17.79
2022-08-05T06:32:20.828Z,17.70
2022-08-05T06:34:53.434Z,17.78
2022-08-05T06:37:56.996Z,17.80
2022-08-05T06:40:09.989Z,17.76
2022-08-05T06:42:37.558Z,17.76
2022-08-05T06:45:08.699Z,17.81
2022-08-05T06:48:36.080Z,17.87
2022-08-05T06:50:22.654Z,17.76
2022-08-05T06:52:58.690Z,17.71
2022-08-05T06:55:31.402Z,17.66
2022-08-05T06:58:20.184Z,17.63
2022-08-05T07:00:49.869Z,17.61
2022-08-05T07:03:17.556Z,17.68
2022-08-05T07:05:53.213Z,17.68
2022-08-05T07:08:23.669Z,17.69
2022-08-05T07:10:54.965Z,17.76
2022-08-05T07:13:59.420Z,17.76
2022-08-05T07:18:00.086Z,17.76
2022-08-05T07:22:27.678Z,17.96
2022-08-05T07:25:23.056Z,17.95
2022-08-05T07:27:58.123Z,17.78
2022-08-05T07:30:39.066Z,17.71
2022-08-05T07:33:16.169Z,17.61
2022-08-05T07:36:03.319Z,17.60
2022-08-05T07:38:34.981Z,17.55
2022-08-05T07:42:07.354Z,17.62
2022-08-05T07:43:59.740Z,17.68
2022-08-05T07:46:28.234Z,17.67
2022-08-05T07:49:02.440Z,17.61
2022-08-05T07:51:37.518Z,17.53
2022-08-05T07:54:09.667Z,17.28
2022-08-05T07:57:00.286Z,17.18
2022-08-05T07:59:38.148Z,17.07
2022-08-05T08:02:16.041Z,17.01
2022-08-05T08:04:49.396Z,17.04
2022-08-05T08:07:22.925Z,17.13
2022-08-05T08:09:52.527Z,17.22
2022-08-05T08:12:35.259Z,17.16
2022-08-05T08:15:05.255Z,17.27
2022-08-05T08:17:40.410Z,17.23
2022-08-05T08:20:43.454Z,17.20
2022-08-05T08:23:03.414Z,17.32
2022-08-05T08:26:00.653Z,17.34
2022-08-05T08:28:18.748Z,17.39
2022-08-05T08:31:02.503Z,17.35
2022-08-05T08:33:36.064Z,17.32
2022-08-05T08:36:37.625Z,17.36
2022-08-05T08:38:55.445Z,17.35
2022-08-05T08:41:26.194Z,17.31
2022-08-05T08:45:16.986Z,17.38
2022-08-05T08:47:02.635Z,17.47
2022-08-05T08:50:14.663Z,17.58
2022-08-05T08:52:39.850Z,17.68
2022-08-05T08:55:13.171Z,17.66
2022-08-05T08:57:48.259Z,17.64
2022-08-05T09:00:24.979Z,17.72
2022-08-05T09:02:53.429Z,17.79
2022-08-05T09:05:38.684Z,17.77
2022-08-05T09:08:09.691Z,17.78
2022-08-05T09:10:36.670Z,17.95
2022-08-05T09:13:07.011Z,17.96
2022-08-05T09:15:36.801Z,18.10
2022-08-05T09:18:06.472Z,18.17
2022-08-05T09:20:37.792Z,18.21
2022-08-05T09:26:58.694Z,18.13
2022-08-05T09:29:47.997Z,18.00
2022-08-05T09:32:40.352Z,18.03
2022-08-05T09:35:12.847Z,18.08
2022-08-05T09:38:12.808Z,18.24
2022-08-05T09:46:36.870Z,18.74
2022-08-05T09:49:18.654Z,18.69
2022-08-05T09:51:50.226Z,18.85
2022-08-05T09:54:21.170Z,18.87
2022-08-05T09:57:04.611Z,18.86
2022-08-05T09:59:57.396Z,18.89
2022-08-05T10:02:38.781Z,19.05
2022-08-05T10:05:16.030Z,19.17
2022-08-05T10:08:34.893Z,19.41
2022-08-05T10:10:48.305Z,19.49
2022-08-05T10:13:49.716Z,19.81
2022-08-05T10:16:52.857Z,20.03
2022-08-05T10:19:23.586Z,20.18
2022-08-05T10:21:59.066Z,20.44
2022-08-05T10:24:27.155Z,20.68
2022-08-05T10:27:01.987Z,20.80
2022-08-05T10:30:06.300Z,20.94
2022-08-05T10:32:55.702Z,20.96
2022-08-05T10:35:10.410Z,20.79
2022-08-05T10:45:41.780Z,20.47
2022-08-05T10:48:36.022Z,20.41
2022-08-05T10:51:22.074Z,20.35
2022-08-05T10:53:51.891Z,20.52
2022-08-05T10:56:26.049Z,20.59
2022-08-05T10:58:55.557Z,20.57
2022-08-05T11:01:55.145Z,20.58
2022-08-05T11:04:17.611Z,20.85
2022-08-05T11:07:01.411Z,21.07
2022-08-05T11:09:46.230Z,20.98
2022-08-05T11:12:42.418Z,21.04
2022-08-05T11:15:59.130Z,21.11
2022-08-05T11:18:30.264Z,21.28
2022-08-05T11:21:00.141Z,21.21
2022-08-05T11:23:33.771Z,21.19
2022-08-05T11:26:28.526Z,21.17
2022-08-05T11:29:06.697Z,21.38
2022-08-05T11:31:56.361Z,21.20
2022-08-05T11:34:51.739Z,21.06
2022-08-05T11:38:29.746Z,21.23
2022-08-05T11:41:34.170Z,21.54
2022-08-05T11:44:04.842Z,21.83
2022-08-05T11:54:04.028Z,21.79
2022-08-05T11:56:52.245Z,21.80
2022-08-05T11:59:26.981Z,21.84
2022-08-05T12:01:57.301Z,21.84
2022-08-05T12:04:25.507Z,21.79
2022-08-05T12:06:54.135Z,21.51
2022-08-05T12:09:38.489Z,21.63
2022-08-05T12:12:14.226Z,21.76
2022-08-05T12:14:43.364Z,21.83
2022-08-05T12:17:57.891Z,21.84
2022-08-05T12:20:17.042Z,21.97
2022-08-05T12:22:49.010Z,22.19
2022-08-05T12:25:18.521Z,22.39
2022-08-05T12:27:53.401Z,22.50
2022-08-05T12:30:22.451Z,22.49
2022-08-05T12:33:07.474Z,22.31
2022-08-05T12:35:45.642Z,22.06
2022-08-05T12:38:15.151Z,21.64
2022-08-05T12:40:43.507Z,21.56
2022-08-05T12:43:10.730Z,21.59
2022-08-05T12:45:49.565Z,21.70
2022-08-05T12:48:27.381Z,21.67
2022-08-05T12:51:21.675Z,21.60
2022-08-05T12:54:04.559Z,21.49
2022-08-05T12:56:45.147Z,21.43
2022-08-05T12:59:13.842Z,21.49
2022-08-05T13:02:05.920Z,21.46
2022-08-05T13:04:41.629Z,21.60
2022-08-05T13:07:57.608Z,21.70
2022-08-05T13:10:19.602Z,21.78
2022-08-05T13:12:57.742Z,21.80
2022-08-05T13:15:41.941Z,21.76
2022-08-05T13:18:20.960Z,21.74
2022-08-05T13:20:49.856Z,21.76
2022-08-05T13:23:22.056Z,21.78
2022-08-05T13:25:52.093Z,21.77
2022-08-05T13:28:27.365Z,21.80
2022-08-05T13:30:54.170Z,21.79
2022-08-05T13:34:23.298Z,21.68
2022-08-05T13:36:09.153Z,21.56
2022-08-05T13:38:38.490Z,21.45
2022-08-05T13:41:09.674Z,21.39
2022-08-05T13:43:43.963Z,21.35
2022-08-05T13:46:30.690Z,21.34
2022-08-05T13:49:10.502Z,21.38
2022-08-05T13:51:41.239Z,21.45
2022-08-05T13:54:15.079Z,21.63
2022-08-05T13:56:45.128Z,21.67
2022-08-05T13:59:21.287Z,21.78
2022-08-05T14:01:58.414Z,21.93
2022-08-05T14:04:50.021Z,22.14
2022-08-05T14:07:25.728Z,22.79
2022-08-05T14:10:28.392Z,23.38
2022-08-05T14:12:57.105Z,23.81
2022-08-05T14:16:07.314Z,24.07
2022-08-05T14:18:14.885Z,24.30
2022-08-05T14:20:48.353Z,24.42
2022-08-05T14:23:23.462Z,24.22
2022-08-05T14:25:54.295Z,23.98
2022-08-05T14:28:27.014Z,23.63
2022-08-05T14:30:55.034Z,23.23
2022-08-05T14:33:22.619Z,22.89
2022-08-05T14:35:51.745Z,22.77
2022-08-05T14:38:32.655Z,22.69
2022-08-05T14:41:05.579Z,22.79
2022-08-05T14:44:00.284Z,23.44
2022-08-05T14:46:20.573Z,24.12
2022-08-05T14:48:49.967Z,24.75
2022-08-05T14:51:17.594Z,24.83
2022-08-05T14:53:46.218Z,24.41
2022-08-05T14:56:32.876Z,23.95
2022-08-05T14:58:59.594Z,24.19
2022-08-05T15:01:48.144Z,24.22
2022-08-05T15:04:15.153Z,23.69
2022-08-05T15:06:41.740Z,23.25
2022-08-05T15:09:15.897Z,23.04
2022-08-05T15:11:52.642Z,22.96
2022-08-05T15:14:34.750Z,22.94
2022-08-05T15:17:09.663Z,23.54
2022-08-05T15:19:41.251Z,23.86
2022-08-05T15:22:16.126Z,23.86
2022-08-05T15:24:44.249Z,23.43
2022-08-05T15:27:11.503Z,23.10
2022-08-05T15:29:41.802Z,22.83
2022-08-05T15:32:08.981Z,22.68
2022-08-05T15:34:35.679Z,22.62
2022-08-05T15:37:15.633Z,22.57
2022-08-05T15:40:59.776Z,22.55
2022-08-05T15:42:55.733Z,22.47
2022-08-05T15:45:38.528Z,22.38
2022-08-05T15:48:05.824Z,22.32
2022-08-05T15:50:33.860Z,22.23
2022-08-05T15:53:05.174Z,22.38
2022-08-05T15:56:01.983Z,22.47
2022-08-05T15:58:19.534Z,22.54
2022-08-05T16:00:50.475Z,22.52
2022-08-05T16:03:32.591Z,22.51
2022-08-05T16:06:00.475Z,22.48
2022-08-05T16:08:30.413Z,22.57
2022-08-05T16:10:57.758Z,22.69
2022-08-05T16:13:24.353Z,22.59
2022-08-05T16:16:01.129Z,22.58
2022-08-05T16:18:30.385Z,22.57
2022-08-05T16:20:57.536Z,22.57
2022-08-05T16:23:24.277Z,22.55
2022-08-05T16:25:55.904Z,22.57
2022-08-05T16:28:24.254Z,22.49
2022-08-05T16:30:52.153Z,22.40
2022-08-05T16:33:19.457Z,22.42
2022-08-05T16:35:49.910Z,22.38
2022-08-05T16:38:25.402Z,22.37
2022-08-05T16:41:00.783Z,22.40
2022-08-05T16:43:33.045Z,22.34
2022-08-05T16:46:07.209Z,22.33
2022-08-05T16:48:39.702Z,22.26
2022-08-05T16:51:09.976Z,22.19
2022-08-05T16:54:06.050Z,22.06
2022-08-05T16:56:29.778Z,21.97
2022-08-05T16:58:57.950Z,21.93
2022-08-05T17:01:24.796Z,21.88
2022-08-05T17:03:52.005Z,21.88
2022-08-05T17:06:19.130Z,21.92
2022-08-05T17:08:53.645Z,21.94
2022-08-05T17:11:25.407Z,21.93
2022-08-05T17:14:00.211Z,21.96
2022-08-05T17:16:36.389Z,21.94
2022-08-05T17:19:07.060Z,21.93
2022-08-05T17:21:36.099Z,21.92
2022-08-05T17:24:30.248Z,21.91
2022-08-05T17:26:56.338Z,21.82
2022-08-05T17:29:33.564Z,21.79
2022-08-05T17:32:08.388Z,21.76
2022-08-05T17:34:35.221Z,21.78
2022-08-05T17:37:02.037Z,21.67
2022-08-05T17:39:33.516Z,21.65
2022-08-05T17:42:18.278Z,21.77
2022-08-05T17:44:51.049Z,21.65
2022-08-05T17:47:22.226Z,21.65
2022-08-05T17:49:59.715Z,21.59
2022-08-05T17:52:32.430Z,21.49
2022-08-05T17:54:59.953Z,21.40
2022-08-05T17:57:27.766Z,21.35
2022-08-05T18:00:05.159Z,21.37
2022-08-05T18:02:32.967Z,21.36
2022-08-05T18:05:06.212Z,21.26
2022-08-05T18:07:41.503Z,21.17
2022-08-05T18:10:11.180Z,21.16
2022-08-05T18:12:38.530Z,21.24
2022-08-05T18:15:06.218Z,21.20
2022-08-05T18:18:00.631Z,21.11
2022-08-05T18:20:29.198Z,21.06
2022-08-05T18:23:00.693Z,21.10
2022-08-05T18:25:39.429Z,21.12
2022-08-05T18:28:07.350Z,21.11
2022-08-05T18:30:38.894Z,21.14
2022-08-05T18:33:06.266Z,21.04
2022-08-05T18:36:00.553Z,21.00
2022-08-05T18:38:25.893Z,20.91
2022-08-05T18:41:56.033Z,20.83
2022-08-05T18:43:42.823Z,20.82
2022-08-05T18:46:15.169Z,20.75
2022-08-05T18:48:42.138Z,20.70
2022-08-05T18:52:05.611Z,20.66
2022-08-05T18:54:14.803Z,20.52
2022-08-05T18:56:50.837Z,20.51
2022-08-05T18:59:43.923Z,20.49
2022-08-05T19:02:11.472Z,20.45
2022-08-05T19:05:01.542Z,20.42
2022-08-05T19:07:46.321Z,20.37
2022-08-05T19:10:17.213Z,20.35
2022-08-05T19:12:44.057Z,20.32
2022-08-05T19:15:54.672Z,20.29
2022-08-05T19:18:10.356Z,20.21
2022-08-05T19:20:41.608Z,20.18
2022-08-05T19:24:04.461Z,20.12
2022-08-05T19:26:01.082Z,20.06
2022-08-05T19:28:29.834Z,20.00
2022-08-05T19:30:57.947Z,19.86
2022-08-05T19:33:36.044Z,19.77
2022-08-05T19:36:06.853Z,19.68
2022-08-05T19:38:35.587Z,19.56
2022-08-05T19:41:07.413Z,19.48
2022-08-05T19:44:06.984Z,19.39
2022-08-05T19:46:29.791Z,19.33
2022-08-05T19:49:02.844Z,19.32
2022-08-05T19:52:08.924Z,19.23
2022-08-05T19:54:26.761Z,19.18
2022-08-05T19:57:02.502Z,19.16
2022-08-05T19:59:55.109Z,19.13
2022-08-05T20:02:20.674Z,19.08
2022-08-05T20:04:48.385Z,19.03
2022-08-05T20:07:15.648Z,19.02
2022-08-05T20:10:04.935Z,18.97
2022-08-05T20:12:40.027Z,18.94
2022-08-05T20:15:15.977Z,18.93
2022-08-05T20:18:04.384Z,18.90
2022-08-05T20:20:38.016Z,18.88
2022-08-05T20:23:05.346Z,18.89
2022-08-05T20:25:33.914Z,18.84
2022-08-05T20:28:08.176Z,18.81
2022-08-05T20:30:40.434Z,18.80
2022-08-05T20:33:08.810Z,18.78
2022-08-05T20:35:40.597Z,18.77
2022-08-05T20:38:20.115Z,18.73
2022-08-05T20:40:53.368Z,18.72
2022-08-05T20:43:33.376Z,18.68
2022-08-05T20:46:10.239Z,18.62
2022-08-05T20:48:39.162Z,18.57
2022-08-05T20:51:08.795Z,18.51
2022-08-05T20:53:36.905Z,18.52
2022-08-05T20:56:09.714Z,18.49
2022-08-05T20:58:36.937Z,18.49
2022-08-05T21:01:06.304Z,18.47
2022-08-05T21:03:34.186Z,18.44
2022-08-05T21:06:01.853Z,18.40
2022-08-05T21:08:35.835Z,18.42
2022-08-05T21:11:13.002Z,18.31
2022-08-05T21:13:59.397Z,18.30
2022-08-05T21:16:29.326Z,18.21
2022-08-05T21:18:56.959Z,18.17
2022-08-05T21:21:26.821Z,18.12
2022-08-05T21:24:07.340Z,18.04
2022-08-05T21:26:33.974Z,18.05
2022-08-05T21:29:03.751Z,18.03
2022-08-05T21:31:41.176Z,17.99
2022-08-05T21:34:10.640Z,17.89
2022-08-05T21:36:38.621Z,17.87
2022-08-05T21:39:05.455Z,17.79
2022-08-05T21:41:35.614Z,17.72
2022-08-05T21:44:04.786Z,17.69
2022-08-05T21:46:34.584Z,17.64
2022-08-05T21:49:07.426Z,17.60
2022-08-05T21:52:21.394Z,17.58
2022-08-05T21:54:28.139Z,17.51
2022-08-05T21:57:29.284Z,17.53
2022-08-05T22:00:02.023Z,17.50
2022-08-05T22:02:30.750Z,17.48
2022-08-05T22:04:58.731Z,17.43
2022-08-05T22:07:40.329Z,17.40
2022-08-05T22:10:13.519Z,17.36
2022-08-05T22:12:44.877Z,17.30
2022-08-05T22:16:00.569Z,17.25
2022-08-05T22:18:06.487Z,17.27
2022-08-05T22:20:35.727Z,17.26
2022-08-05T22:23:24.756Z,17.21
2022-08-05T22:26:30.300Z,17.11
2022-08-05T22:28:56.951Z,17.10
2022-08-05T22:31:29.960Z,17.07
2022-08-05T22:34:01.075Z,17.06
2022-08-05T22:36:28.246Z,16.99
2022-08-05T22:38:55.981Z,16.94
2022-08-05T22:42:05.577Z,16.95
2022-08-05T22:44:12.128Z,16.95
2022-08-05T22:46:40.632Z,16.94
2022-08-05T22:49:12.514Z,16.96
2022-08-05T22:52:04.875Z,16.96
2022-08-05T22:54:35.497Z,16.91
2022-08-05T22:57:02.875Z,16.89
2022-08-05T22:59:45.218Z,16.85
2022-08-05T23:02:16.856Z,16.81
2022-08-05T23:04:51.539Z,16.82
2022-08-05T23:07:19.187Z,16.84
2022-08-05T23:09:58.230Z,16.81
2022-08-05T23:12:32.806Z,16.79
2022-08-05T23:15:03.342Z,16.73
2022-08-05T23:17:34.349Z,16.70
2022-08-05T23:20:10.212Z,16.65
2022-08-05T23:22:47.087Z,16.68
2022-08-05T23:25:17.063Z,16.66
2022-08-05T23:27:58.015Z,16.69
2022-08-05T23:30:29.134Z,16.74
2022-08-05T23:32:57.950Z,16.70
2022-08-05T23:35:25.538Z,16.61
2022-08-05T23:37:55.736Z,16.60
2022-08-05T23:40:27.139Z,16.59
2022-08-05T23:42:54.129Z,16.56
2022-08-05T23:45:23.826Z,16.55
2022-08-05T23:47:53.817Z,16.51
2022-08-05T23:50:26.526Z,16.43
2022-08-05T23:52:54.658Z,16.37
2022-08-05T23:55:22.487Z,16.34
2022-08-05T23:57:57.379Z,16.36
